Time;durP1;ratioP1;P1;durP2;ratioP2;P2;SDS_P1;SDS_P2;PMS_P1;PMS_P2;Temp;Humidity;BMP_temperature;BMP_pressure;BME280_temperature;BME280_humidity;BME280_pressure;Samples;Min_cycle;Max_cycle;Signal;HPM_P1;HPM_P2
2022/07/12 00:01:56;;;;;;;6.97;4.50;;;21.20;99.90;;;;;;5053620;28;20103;-78
2022/07/12 00:04:22;;;;;;;5.43;3.80;;;21.20;99.90;;;;;;5054493;28;20123;-78
2022/07/12 00:06:47;;;;;;;6.95;3.85;;;21.10;99.90;;;;;;5054662;28;20036;-78
2022/07/12 00:09:13;;;;;;;7.53;3.92;;;21.30;99.90;;;;;;5054391;28;20037;-78
2022/07/12 00:11:39;;;;;;;7.72;4.00;;;21.40;99.90;;;;;;5052805;28;20025;-79
2022/07/12 00:14:06;;;;;;;9.98;4.70;;;21.30;99.90;;;;;;5054608;28;20388;-79
2022/07/12 00:16:31;;;;;;;8.80;4.53;;;21.10;99.90;;;;;;5052839;28;20477;-78
2022/07/12 00:18:57;;;;;;;10.05;4.43;;;21.30;99.90;;;;;;5054379;28;20052;-78
2022/07/12 00:21:23;;;;;;;8.50;4.20;;;21.30;99.90;;;;;;5052623;28;20021;-78
2022/07/12 00:23:49;;;;;;;9.52;4.35;;;21.30;99.90;;;;;;5052983;28;20469;-78
2022/07/12 00:26:14;;;;;;;6.47;4.30;;;21.20;99.90;;;;;;5053891;28;20054;-79
2022/07/12 00:28:41;;;;;;;7.97;4.38;;;21.00;99.90;;;;;;5054189;28;20102;-78
2022/07/12 00:31:06;;;;;;;8.25;4.70;;;21.00;99.90;;;;;;5052975;28;20036;-79
2022/07/12 00:33:32;;;;;;;6.15;4.40;;;21.00;99.90;;;;;;5054110;28;20033;-78
2022/07/12 00:35:58;;;;;;;6.20;4.05;;;21.00;99.90;;;;;;5053848;28;20033;-78
2022/07/12 00:38:24;;;;;;;8.50;4.88;;;21.10;99.90;;;;;;5053786;28;20029;-78
2022/07/12 00:40:49;;;;;;;6.20;4.57;;;21.30;99.90;;;;;;5052414;28;20488;-78
2022/07/12 00:43:15;;;;;;;11.35;4.65;;;21.00;99.90;;;;;;5054059;28;20021;-81
2022/07/12 00:45:41;;;;;;;10.70;4.85;;;21.00;99.90;;;;;;5052408;28;20036;-78
2022/07/12 00:48:08;;;;;;;9.80;4.93;;;21.20;99.90;;;;;;5054134;28;20031;-78
2022/07/12 00:50:34;;;;;;;9.48;4.70;;;21.00;99.90;;;;;;5052426;28;20094;-77
2022/07/12 00:53:00;;;;;;;9.20;4.63;;;20.70;99.90;;;;;;5052409;28;20037;-78
2022/07/12 00:55:26;;;;;;;10.68;4.35;;;20.50;99.90;;;;;;5053417;28;20033;-78
2022/07/12 00:57:52;;;;;;;6.32;4.47;;;20.50;99.90;;;;;;5052111;28;20515;-78
2022/07/12 01:00:27;;;;;;;7.68;4.60;;;20.60;99.90;;;;;;5053683;28;20066;-78
2022/07/12 01:02:55;;;;;;;9.02;4.20;;;20.60;99.90;;;;;;5052222;28;20070;-78
2022/07/12 01:05:22;;;;;;;7.72;4.93;;;20.30;99.90;;;;;;5053640;28;20029;-78
2022/07/12 01:07:48;;;;;;;7.60;4.13;;;20.30;99.90;;;;;;5052909;28;20178;-78
2022/07/12 01:10:14;;;;;;;6.80;3.92;;;20.20;99.90;;;;;;5053322;28;20487;-78
2022/07/12 01:12:40;;;;;;;7.85;3.97;;;19.90;99.90;;;;;;5053065;28;20116;-78
2022/07/12 01:15:07;;;;;;;13.05;4.50;;;19.70;99.90;;;;;;5052010;28;20154;-78
2022/07/12 01:17:33;;;;;;;13.43;4.85;;;19.70;99.90;;;;;;5053244;28;20057;-78
2022/07/12 01:19:59;;;;;;;8.82;4.15;;;19.50;99.90;;;;;;5051525;28;20563;-78
2022/07/12 01:22:33;;;;;;;4.68;3.92;;;19.70;99.90;;;;;;5053112;28;20063;-78
2022/07/12 01:25:03;;;;;;;8.63;4.45;;;19.80;99.90;;;;;;5051675;28;20025;-78
2022/07/12 01:27:30;;;;;;;5.47;4.32;;;19.90;99.90;;;;;;5053115;28;20061;-78
2022/07/12 01:29:56;;;;;;;9.70;4.18;;;20.00;99.90;;;;;;5052787;28;20029;-78
2022/07/12 01:32:25;;;;;;;8.73;4.60;;;19.90;99.90;;;;;;5052799;28;20385;-78
2022/07/12 01:34:54;;;;;;;5.95;4.13;;;20.00;99.90;;;;;;5051516;28;20060;-78
2022/07/12 01:37:22;;;;;;;8.88;3.90;;;19.80;99.90;;;;;;5051651;28;20078;-78
2022/07/12 01:39:53;;;;;;;10.15;3.85;;;19.90;99.90;;;;;;5052609;28;20492;-78
2022/07/12 01:42:20;;;;;;;6.50;4.27;;;19.80;99.90;;;;;;5051236;28;20017;-78
2022/07/12 01:44:47;;;;;;;6.00;4.18;;;19.90;99.90;;;;;;5051675;28;20088;-78
2022/07/12 01:47:13;;;;;;;7.18;4.05;;;19.90;99.90;;;;;;5052865;28;20117;-78
2022/07/12 01:49:39;;;;;;;7.13;4.07;;;19.70;99.90;;;;;;5052574;28;20049;-78
2022/07/12 01:52:05;;;;;;;8.07;4.00;;;19.30;99.90;;;;;;5052367;28;20473;-78
2022/07/12 01:54:31;;;;;;;5.47;3.78;;;19.40;99.90;;;;;;5052740;28;20511;-78
2022/07/12 01:56:57;;;;;;;8.50;4.28;;;19.90;99.90;;;;;;5052672;28;20053;-78
2022/07/12 01:59:23;;;;;;;10.68;4.15;;;20.10;99.90;;;;;;5052534;28;20812;-78
2022/07/12 02:01:48;;;;;;;11.40;4.03;;;20.00;99.90;;;;;;5051228;28;20025;-78
2022/07/12 02:04:18;;;;;;;12.00;4.28;;;19.50;99.90;;;;;;5052715;28;20029;-78
2022/07/12 02:06:45;;;;;;;9.85;4.22;;;19.50;99.90;;;;;;5052397;28;20083;-78
2022/07/12 02:09:14;;;;;;;6.95;3.55;;;19.30;99.90;;;;;;5052258;28;20032;-78
2022/07/12 02:11:41;;;;;;;11.80;4.10;;;19.40;99.90;;;;;;5052439;28;20592;-78
2022/07/12 02:14:07;;;;;;;9.73;4.20;;;19.80;99.90;;;;;;5052166;28;20033;-77
2022/07/12 02:16:33;;;;;;;8.60;3.90;;;19.90;99.90;;;;;;5052528;28;20021;-78
2022/07/12 02:18:59;;;;;;;8.20;4.05;;;19.90;99.90;;;;;;5051025;28;20021;-78
2022/07/12 02:21:25;;;;;;;5.72;3.75;;;19.80;99.90;;;;;;5051973;28;20021;-78
2022/07/12 02:23:50;;;;;;;8.93;3.85;;;19.90;99.90;;;;;;5052369;28;20033;-78
2022/07/12 02:26:16;;;;;;;7.32;3.60;;;19.90;99.90;;;;;;5052545;28;20025;-78
2022/07/12 02:28:42;;;;;;;15.52;3.88;;;19.80;99.90;;;;;;5052171;28;20454;-77
2022/07/12 02:31:08;;;;;;;8.98;3.97;;;20.10;99.90;;;;;;5052634;28;20427;-79
2022/07/12 02:33:35;;;;;;;8.57;3.80;;;20.20;99.90;;;;;;5050833;28;20033;-78
2022/07/12 02:36:01;;;;;;;10.43;4.03;;;20.00;99.90;;;;;;5052260;28;20029;-77
2022/07/12 02:38:27;;;;;;;7.20;3.90;;;19.90;99.90;;;;;;5052163;28;20124;-78
2022/07/12 02:40:53;;;;;;;7.40;3.97;;;19.70;99.90;;;;;;5052292;28;20107;-78
2022/07/12 02:43:27;;;;;;;6.03;3.70;;;19.60;99.90;;;;;;5050954;28;20123;-78
2022/07/12 02:45:58;;;;;;;6.65;4.95;;;19.40;99.90;;;;;;5052877;28;20362;-78
2022/07/12 02:48:24;;;;;;;12.68;4.53;;;19.30;99.90;;;;;;5054892;28;20362;-78
2022/07/12 02:50:50;;;;;;;12.82;5.20;;;19.40;99.90;;;;;;5055527;28;20029;-78
2022/07/12 02:53:16;;;;;;;7.15;4.78;;;19.50;99.90;;;;;;5055943;28;20115;-78
2022/07/12 02:55:41;;;;;;;9.73;5.32;;;19.50;99.90;;;;;;5054559;28;20025;-77
2022/07/12 02:58:07;;;;;;;6.38;4.63;;;18.90;99.90;;;;;;5055891;28;20535;-78
2022/07/12 03:00:34;;;;;;;6.35;4.90;;;18.70;99.90;;;;;;5055875;28;20125;-77
2022/07/12 03:03:01;;;;;;;6.70;4.90;;;18.90;99.90;;;;;;5055663;28;20032;-78
2022/07/12 03:05:27;;;;;;;7.35;4.65;;;18.70;99.90;;;;;;5055534;28;20060;-78
2022/07/12 03:07:53;;;;;;;7.38;5.50;;;18.20;99.90;;;;;;5054348;28;20068;-78
2022/07/12 03:10:18;;;;;;;8.45;4.90;;;18.50;99.90;;;;;;5055595;28;20025;-78
2022/07/12 03:12:44;;;;;;;7.60;5.00;;;18.60;99.90;;;;;;5054099;28;20505;-77
2022/07/12 03:15:11;;;;;;;5.78;4.32;;;18.50;99.90;;;;;;5055625;28;20048;-78
2022/07/12 03:17:37;;;;;;;8.27;4.75;;;18.60;99.90;;;;;;5054405;28;20017;-78
2022/07/12 03:20:06;;;;;;;8.40;4.82;;;18.60;99.90;;;;;;5055227;28;20033;-78
2022/07/12 03:22:31;;;;;;;8.48;4.60;;;18.80;99.90;;;;;;5055367;28;20041;-78
2022/07/12 03:24:57;;;;;;;7.80;4.57;;;18.60;99.90;;;;;;5055136;28;20143;-78
2022/07/12 03:27:23;;;;;;;6.07;4.75;;;18.90;99.90;;;;;;5055421;28;20154;-78
2022/07/12 03:29:49;;;;;;;9.27;4.65;;;19.00;99.90;;;;;;5055206;28;20093;-78
2022/07/12 03:32:15;;;;;;;6.25;4.65;;;19.00;99.90;;;;;;5055305;28;20027;-78
2022/07/12 03:34:41;;;;;;;6.55;4.25;;;19.00;99.90;;;;;;5054733;28;20029;-78
2022/07/12 03:37:07;;;;;;;7.30;4.55;;;18.70;99.90;;;;;;5054828;28;20100;-78
2022/07/12 03:39:32;;;;;;;5.45;4.15;;;18.60;99.90;;;;;;5054466;28;20039;-78
2022/07/12 03:41:58;;;;;;;7.90;4.28;;;18.70;99.90;;;;;;5054567;28;20025;-78
2022/07/12 03:44:24;;;;;;;7.32;4.68;;;18.90;99.90;;;;;;5054982;28;20111;-78
2022/07/12 03:46:50;;;;;;;7.47;4.43;;;18.80;99.90;;;;;;5053603;28;20116;-78
2022/07/12 03:49:15;;;;;;;10.07;4.90;;;18.40;99.90;;;;;;5053270;28;20139;-78
2022/07/12 03:51:41;;;;;;;6.80;4.50;;;18.10;99.90;;;;;;5053471;28;20477;-78
2022/07/12 03:54:07;;;;;;;9.50;4.32;;;18.20;99.90;;;;;;5054688;28;20041;-78
2022/07/12 03:59:21;;;;;;;7.45;4.50;;;18.50;99.90;;;;;;5054705;28;20033;-78
2022/07/12 04:01:46;;;;;;;8.93;4.78;;;18.60;99.90;;;;;;5054697;28;20021;-79
2022/07/12 04:04:12;;;;;;;8.93;4.65;;;18.70;99.90;;;;;;5053187;28;20469;-79
2022/07/12 04:06:38;;;;;;;9.48;4.43;;;18.50;99.90;;;;;;5054635;28;20057;-78
2022/07/12 04:09:07;;;;;;;8.95;4.45;;;18.60;99.90;;;;;;5054314;28;20072;-78
2022/07/12 04:11:33;;;;;;;6.22;4.00;;;18.90;99.90;;;;;;5054545;28;20017;-78
2022/07/12 04:13:59;;;;;;;15.13;4.45;;;19.10;99.90;;;;;;5054498;28;20045;-78
2022/07/12 04:16:26;;;;;;;6.43;4.45;;;18.90;99.90;;;;;;5054202;28;20017;-78
2022/07/12 04:18:52;;;;;;;14.52;4.32;;;18.50;99.90;;;;;;5054062;28;20074;-78
2022/07/12 04:21:18;;;;;;;6.53;5.05;;;18.50;99.90;;;;;;5054177;28;20021;-78
2022/07/12 04:23:43;;;;;;;10.68;4.47;;;18.70;99.90;;;;;;5054183;28;20021;-78
2022/07/12 04:26:09;;;;;;;7.65;5.25;;;18.80;99.90;;;;;;5054194;28;20032;-78
2022/07/12 04:28:35;;;;;;;8.38;5.05;;;18.90;99.90;;;;;;5052836;28;20461;-78
2022/07/12 04:31:02;;;;;;;10.32;5.25;;;18.90;99.90;;;;;;5054012;28;20500;-78
2022/07/12 04:33:28;;;;;;;10.68;5.82;;;18.90;99.90;;;;;;5053807;28;20029;-77
2022/07/12 04:35:53;;;;;;;7.32;5.68;;;19.00;99.90;;;;;;5053874;28;20037;-78
2022/07/12 04:38:20;;;;;;;8.20;5.60;;;19.20;99.90;;;;;;5054268;28;20035;-78
2022/07/12 04:40:45;;;;;;;8.45;5.70;;;19.10;99.90;;;;;;5053784;28;20134;-78
2022/07/12 04:43:12;;;;;;;9.95;5.88;;;19.20;99.90;;;;;;5053982;28;20469;-78
2022/07/12 04:45:38;;;;;;;7.78;6.20;;;19.60;99.90;;;;;;5053874;28;20103;-78
2022/07/12 04:48:04;;;;;;;11.40;6.72;;;19.70;99.90;;;;;;5052251;28;20055;-78
2022/07/12 04:50:29;;;;;;;8.85;6.13;;;19.70;99.90;;;;;;5052347;28;20021;-77
2022/07/12 04:52:55;;;;;;;9.38;6.40;;;19.80;99.90;;;;;;5053676;28;20045;-78
2022/07/12 04:55:21;;;;;;;8.30;5.82;;;20.00;99.90;;;;;;5052786;28;20040;-78
2022/07/12 04:57:47;;;;;;;9.45;6.05;;;20.20;99.90;;;;;;5053537;28;20075;-78
2022/07/12 05:00:13;;;;;;;9.25;6.50;;;20.30;99.90;;;;;;5053827;28;20025;-78
2022/07/12 05:02:39;;;;;;;18.27;6.55;;;20.40;99.90;;;;;;5051506;28;20499;-78
2022/07/12 05:05:05;;;;;;;11.23;5.78;;;20.50;99.90;;;;;;5053360;28;20037;-78
2022/07/12 05:07:31;;;;;;;10.38;5.65;;;20.50;99.90;;;;;;5051845;28;20017;-78
2022/07/12 05:09:56;;;;;;;8.25;5.93;;;20.40;99.90;;;;;;5051489;28;20052;-77
2022/07/12 05:12:22;;;;;;;8.50;5.93;;;20.40;99.90;;;;;;5051975;28;20116;-77
2022/07/12 05:14:48;;;;;;;9.35;6.05;;;20.30;99.90;;;;;;5052975;28;20032;-77
2022/07/12 05:17:14;;;;;;;7.75;6.10;;;20.30;99.90;;;;;;5053125;28;20438;-78
2022/07/12 05:19:40;;;;;;;9.63;6.40;;;20.50;99.90;;;;;;5053296;28;20028;-77
2022/07/12 05:22:05;;;;;;;14.85;6.30;;;20.40;99.90;;;;;;5053015;28;20112;-78
2022/07/12 05:24:31;;;;;;;13.30;7.22;;;20.10;99.90;;;;;;5053191;28;20035;-78
2022/07/12 05:26:57;;;;;;;17.35;6.65;;;20.20;99.90;;;;;;5052969;28;20014;-77
2022/07/12 05:29:23;;;;;;;15.75;6.57;;;20.30;99.90;;;;;;5053308;28;20057;-78
2022/07/12 05:31:49;;;;;;;14.77;6.72;;;20.20;99.90;;;;;;5051180;28;20370;-79
2022/07/12 05:34:15;;;;;;;23.83;7.32;;;20.70;99.90;;;;;;5053004;28;20512;-80
2022/07/12 05:36:41;;;;;;;17.33;7.50;;;20.80;99.90;;;;;;5052928;28;20025;-79
2022/07/12 05:39:06;;;;;;;18.13;7.38;;;21.00;99.90;;;;;;5053065;28;20078;-76
2022/07/12 05:41:32;;;;;;;14.18;7.53;;;20.70;99.90;;;;;;5050212;28;20017;-77
2022/07/12 05:43:58;;;;;;;11.85;7.57;;;20.80;99.90;;;;;;5050377;28;20534;-77
2022/07/12 05:46:24;;;;;;;16.50;7.78;;;21.10;99.90;;;;;;5061993;28;20535;-76
2022/07/12 05:48:50;;;;;;;10.95;7.38;;;20.70;99.90;;;;;;5048977;28;20025;-76
2022/07/12 05:54:00;;;;;;;12.43;6.45;;;20.50;99.90;;;;;;5065686;28;20481;-76
2022/07/12 05:56:26;;;;;;;12.43;6.78;;;20.70;99.90;;;;;;5058909;28;20036;-75
2022/07/12 05:58:52;;;;;;;11.60;6.85;;;20.50;99.90;;;;;;5059992;28;20035;-75
2022/07/12 06:01:18;;;;;;;9.50;7.00;;;20.50;99.90;;;;;;5052279;28;20025;-75
2022/07/12 06:03:44;;;;;;;7.50;5.82;;;20.50;99.90;;;;;;5062812;28;20050;-75
2022/07/12 06:06:10;;;;;;;15.07;6.75;;;20.30;99.90;;;;;;5062909;28;20028;-75
2022/07/12 06:08:35;;;;;;;12.30;5.88;;;20.40;99.90;;;;;;5060447;28;20021;-75
2022/07/12 06:11:01;;;;;;;13.15;6.50;;;20.60;99.90;;;;;;5044872;28;20025;-75
2022/07/12 06:13:28;;;;;;;13.35;6.93;;;20.40;99.90;;;;;;5051927;28;20104;-75
2022/07/12 06:15:59;;;;;;;11.57;6.78;;;20.20;99.90;;;;;;5063110;28;20028;-75
2022/07/12 06:18:25;;;;;;;11.70;6.88;;;20.10;99.90;;;;;;5060431;28;20067;-76
2022/07/12 06:20:52;;;;;;;12.02;7.65;;;20.10;99.90;;;;;;5049753;28;20040;-75
2022/07/12 06:23:18;;;;;;;10.43;7.60;;;20.20;99.90;;;;;;5039736;28;20343;-75
2022/07/12 06:25:45;;;;;;;11.73;7.68;;;20.40;99.90;;;;;;5058590;28;20111;-75
2022/07/12 06:28:12;;;;;;;8.70;6.85;;;20.50;99.90;;;;;;5067660;28;20071;-75
2022/07/12 06:30:37;;;;;;;11.32;7.05;;;20.70;99.90;;;;;;5069850;28;20461;-76
2022/07/12 06:33:03;;;;;;;11.43;8.25;;;20.50;99.90;;;;;;5068125;28;20035;-75
2022/07/12 06:35:29;;;;;;;12.75;8.25;;;20.50;99.90;;;;;;5062313;28;20110;-75
2022/07/12 06:37:55;;;;;;;13.43;7.82;;;20.60;99.90;;;;;;5057783;28;20017;-75
2022/07/12 06:40:21;;;;;;;13.77;7.57;;;20.70;99.90;;;;;;5063067;28;20118;-75
2022/07/12 06:42:49;;;;;;;8.70;7.18;;;20.80;99.90;;;;;;5052088;28;20031;-75
2022/07/12 06:45:14;;;;;;;9.52;6.95;;;20.80;99.90;;;;;;5055823;28;20128;-76
2022/07/12 06:47:40;;;;;;;11.70;6.90;;;21.00;99.90;;;;;;5058083;28;20048;-76
2022/07/12 06:50:06;;;;;;;17.13;7.43;;;21.20;99.90;;;;;;5055513;28;20023;-75
2022/07/12 06:52:32;;;;;;;17.90;7.97;;;21.20;99.90;;;;;;5067987;28;20036;-76
2022/07/12 06:54:58;;;;;;;9.18;7.13;;;21.10;99.90;;;;;;5067910;28;20028;-76
2022/07/12 06:57:26;;;;;;;9.30;6.60;;;21.20;99.90;;;;;;5061523;28;20028;-76
2022/07/12 06:59:52;;;;;;;13.98;6.55;;;21.20;99.90;;;;;;5056680;28;20032;-76
2022/07/12 07:02:18;;;;;;;18.90;6.63;;;21.40;99.90;;;;;;5055763;28;20027;-75
2022/07/12 07:04:44;;;;;;;9.93;7.30;;;21.20;99.90;;;;;;5068616;28;20111;-76
2022/07/12 07:07:10;;;;;;;10.07;6.50;;;21.40;99.90;;;;;;5067018;28;20017;-76
2022/07/12 07:09:35;;;;;;;11.95;6.55;;;21.50;99.90;;;;;;5057325;28;20033;-76
2022/07/12 07:12:02;;;;;;;8.85;6.35;;;21.60;99.90;;;;;;5054953;28;20045;-76
2022/07/12 07:14:27;;;;;;;11.70;6.70;;;21.60;99.90;;;;;;5067540;28;20044;-77
2022/07/12 07:16:54;;;;;;;12.57;6.35;;;21.60;99.90;;;;;;5059409;28;20017;-76
2022/07/12 07:19:21;;;;;;;15.00;6.70;;;21.60;99.90;;;;;;5063414;28;20035;-76
2022/07/12 07:21:46;;;;;;;9.25;6.78;;;21.60;99.90;;;;;;5057602;28;20424;-77
2022/07/12 07:24:12;;;;;;;9.20;6.40;;;21.80;99.90;;;;;;5055087;28;20085;-75
2022/07/12 07:26:38;;;;;;;9.70;6.63;;;21.90;99.90;;;;;;5068255;28;20058;-77
2022/07/12 07:31:50;;;;;;;8.98;6.10;;;22.10;99.90;;;;;;5053047;28;20032;-77
2022/07/12 07:34:16;;;;;;;12.23;6.03;;;21.90;99.90;;;;;;5037150;28;20033;-77
2022/07/12 07:36:42;;;;;;;9.82;6.10;;;21.90;99.90;;;;;;5054967;28;20047;-78
2022/07/12 07:39:08;;;;;;;7.90;6.22;;;22.10;99.90;;;;;;5054945;28;20021;-79
2022/07/12 07:41:34;;;;;;;7.82;5.97;;;22.20;99.90;;;;;;5054717;28;20150;-79
2022/07/12 07:44:00;;;;;;;8.50;6.90;;;22.60;99.90;;;;;;5054921;28;20116;-78
2022/07/12 07:46:26;;;;;;;9.75;5.88;;;22.60;99.90;;;;;;5054958;28;20029;-78
2022/07/12 07:48:51;;;;;;;6.50;5.90;;;22.60;99.90;;;;;;5054671;28;20028;-78
2022/07/12 07:51:17;;;;;;;8.35;6.30;;;22.70;99.90;;;;;;5054865;28;20086;-78
2022/07/12 07:53:43;;;;;;;8.02;6.03;;;22.80;99.90;;;;;;5054700;28;20102;-79
2022/07/12 07:56:09;;;;;;;12.35;6.38;;;22.80;99.90;;;;;;5053220;28;20472;-79
2022/07/12 07:58:34;;;;;;;7.65;6.85;;;23.00;99.90;;;;;;5053526;28;20484;-79
2022/07/12 08:01:00;;;;;;;8.65;6.25;;;23.20;99.90;;;;;;5054399;28;20021;-79
2022/07/12 08:03:26;;;;;;;6.90;6.28;;;23.10;99.90;;;;;;5054908;28;20021;-79
2022/07/12 08:05:52;;;;;;;7.82;6.18;;;23.00;99.90;;;;;;5054330;28;20063;-79
2022/07/12 08:08:18;;;;;;;7.55;5.85;;;23.00;99.90;;;;;;5054448;28;20036;-79
2022/07/12 08:10:44;;;;;;;10.77;6.07;;;23.00;99.90;;;;;;5053898;28;20029;-79
2022/07/12 08:13:10;;;;;;;8.18;6.40;;;23.10;99.90;;;;;;5054615;28;20100;-79
2022/07/12 08:15:36;;;;;;;6.78;5.95;;;23.00;99.90;;;;;;5054474;28;20037;-79
2022/07/12 08:18:03;;;;;;;9.38;6.10;;;23.30;99.90;;;;;;5054372;28;20017;-79
2022/07/12 08:20:29;;;;;;;7.00;5.32;;;23.60;99.90;;;;;;5054377;28;20021;-79
2022/07/12 08:22:54;;;;;;;8.15;5.63;;;23.40;99.90;;;;;;5054135;28;20033;-79
2022/07/12 08:25:20;;;;;;;12.80;6.15;;;23.50;99.90;;;;;;5054071;28;20166;-79
2022/07/12 08:27:46;;;;;;;8.50;4.82;;;23.70;99.90;;;;;;5053182;28;20021;-78
2022/07/12 08:30:12;;;;;;;5.40;4.90;;;24.00;99.90;;;;;;5054116;28;20036;-78
2022/07/12 08:32:43;;;;;;;5.68;4.65;;;24.10;99.90;;;;;;5054116;28;20025;-78
2022/07/12 08:35:09;;;;;;;;;;;24.00;99.90;;;;;;5054298;28;20048;-78
2022/07/12 08:37:35;;;;;;;7.35;5.15;;;24.00;99.40;;;;;;5054113;28;19904;-78
2022/07/12 08:40:00;;;;;;;10.45;4.68;;;24.20;99.90;;;;;;5053870;28;20025;-78
2022/07/12 08:42:26;;;;;;;5.00;4.00;;;24.30;99.80;;;;;;5053646;28;20049;-79
2022/07/12 08:44:56;;;;;;;4.70;4.30;;;24.40;99.60;;;;;;5052997;28;20025;-79
2022/07/12 08:47:21;;;;;;;7.25;4.93;;;24.80;98.80;;;;;;5053704;28;20052;-79
2022/07/12 08:50:17;;;;;;;11.77;5.00;;;25.00;99.00;;;;;;5053664;28;20056;-79
2022/07/12 08:52:48;;;;;;;8.82;4.43;;;25.10;98.10;;;;;;5043950;28;20049;-79
2022/07/12 08:55:20;;;;;;;12.20;4.72;;;25.00;97.70;;;;;;5053587;28;20051;-79
2022/07/12 08:57:47;;;;;;;6.68;5.43;;;25.10;98.20;;;;;;5053472;28;20070;-78
2022/07/12 09:00:13;;;;;;;10.48;4.65;;;25.20;97.90;;;;;;5053497;28;20017;-78
2022/07/12 09:02:49;;;;;;;8.35;4.25;;;25.40;96.90;;;;;;5053462;28;20028;-79
2022/07/12 09:05:25;;;;;;;7.20;5.13;;;25.30;97.90;;;;;;5052256;28;20031;-79
2022/07/12 09:08:00;;;;;;;8.45;5.47;;;25.10;97.70;;;;;;5052948;28;20040;-79
2022/07/12 09:10:26;;;;;;;9.77;5.07;;;25.30;97.30;;;;;;5051864;28;20474;-79
2022/07/12 09:12:52;;;;;;;6.78;5.40;;;25.40;97.90;;;;;;5053005;28;20028;-79
2022/07/12 09:15:20;;;;;;;6.85;4.47;;;25.40;96.20;;;;;;5052054;28;20036;-79
2022/07/12 09:17:57;;;;;;;8.82;4.70;;;25.10;96.30;;;;;;5053015;28;20068;-79
2022/07/12 09:20:25;;;;;;;6.35;5.25;;;25.20;96.40;;;;;;5053160;28;20029;-79
2022/07/12 09:22:57;;;;;;;10.13;4.78;;;25.50;96.90;;;;;;5052792;28;20025;-79
2022/07/12 09:25:23;;;;;;;7.03;4.32;;;25.70;96.70;;;;;;5052074;28;20064;-78
2022/07/12 09:27:52;;;;;;;4.88;4.10;;;25.80;96.30;;;;;;5052892;28;20103;-79
2022/07/12 09:30:18;;;;;;;4.85;4.15;;;26.00;95.10;;;;;;5052996;28;20048;-79
2022/07/12 09:36:14;;;;;;;7.32;4.70;;;26.80;95.90;;;;;;5053159;28;20116;-79
2022/07/12 09:38:50;;;;;;;10.27;4.85;;;26.80;95.10;;;;;;5052805;28;20037;-79
2022/07/12 09:41:23;;;;;;;10.95;3.97;;;27.10;94.00;;;;;;5052779;28;20473;-79
2022/07/12 09:43:50;;;;;;;7.55;3.70;;;26.70;94.50;;;;;;5052844;28;20071;-78
2022/07/12 09:46:17;;;;;;;5.72;3.63;;;26.50;94.50;;;;;;5052871;28;20090;-78
2022/07/12 09:48:44;;;;;;;7.95;4.05;;;26.70;94.80;;;;;;5052547;28;20029;-78
2022/07/12 09:51:14;;;;;;;8.27;3.80;;;27.10;93.80;;;;;;5052475;28;20025;-79
2022/07/12 09:53:51;;;;;;;9.15;3.95;;;27.60;94.70;;;;;;5051444;28;20037;-78
2022/07/12 09:56:21;;;;;;;5.45;4.10;;;27.30;93.70;;;;;;5040068;28;20025;-78
2022/07/12 09:59:00;;;;;;;7.25;4.10;;;27.20;93.50;;;;;;5052444;28;20021;-78
2022/07/12 10:01:25;;;;;;;6.10;3.75;;;26.00;94.70;;;;;;5052539;28;20090;-78
2022/07/12 10:03:53;;;;;;;6.68;3.67;;;26.30;95.30;;;;;;5052617;28;20021;-78
2022/07/12 10:06:26;;;;;;;10.32;4.00;;;26.40;94.30;;;;;;5038474;28;20108;-78
2022/07/12 10:08:52;;;;;;;4.72;3.42;;;26.70;94.30;;;;;;5052219;28;20075;-78
2022/07/12 10:11:19;;;;;;;6.45;3.83;;;26.90;94.80;;;;;;5052250;28;20025;-78
2022/07/12 10:13:46;;;;;;;10.10;4.03;;;26.60;93.90;;;;;;5052754;28;20033;-78
2022/07/12 10:16:14;;;;;;;5.22;3.63;;;26.50;94.60;;;;;;5051379;28;20029;-78
2022/07/12 10:18:40;;;;;;;6.43;4.20;;;26.60;94.70;;;;;;5052318;28;20028;-78
2022/07/12 10:21:24;;;;;;;4.63;4.15;;;26.80;95.30;;;;;;5051220;28;20029;-78
2022/07/12 10:23:50;;;;;;;14.55;4.22;;;26.90;94.90;;;;;;5051015;28;20037;-78
2022/07/12 10:26:16;;;;;;;7.53;3.42;;;26.90;95.00;;;;;;5052394;28;20029;-73
2022/07/12 10:29:03;;;;;;;8.60;4.10;;;27.20;94.40;;;;;;5050838;28;20167;-73
2022/07/12 10:31:33;;;;;;;6.05;3.53;;;27.60;94.20;;;;;;5052375;28;20033;-78
2022/07/12 10:34:09;;;;;;;6.07;3.38;;;27.70;93.80;;;;;;5051739;28;20496;-72
2022/07/12 10:36:53;;;;;;;6.57;3.30;;;27.20;93.80;;;;;;5052122;28;20033;-73
2022/07/12 10:39:20;;;;;;;3.33;2.53;;;27.30;94.00;;;;;;5051401;28;20067;-73
2022/07/12 10:42:05;;;;;;;4.03;2.80;;;27.20;93.10;;;;;;5052018;28;20017;-72
2022/07/12 10:44:36;;;;;;;6.43;3.97;;;27.50;92.00;;;;;;5051929;28;20031;-73
2022/07/12 10:47:04;;;;;;;12.82;3.40;;;27.60;93.70;;;;;;5052178;28;20485;-73
2022/07/12 10:49:31;;;;;;;7.10;2.65;;;27.50;92.60;;;;;;5051670;28;20018;-73
2022/07/12 10:52:09;;;;;;;4.60;2.60;;;28.10;93.30;;;;;;5051152;28;20429;-72
2022/07/12 10:54:39;;;;;;;5.75;3.08;;;28.20;91.80;;;;;;5051736;28;20029;-73
2022/07/12 10:57:06;;;;;;;9.02;3.42;;;28.80;92.10;;;;;;5052329;28;20053;-73
2022/07/12 10:59:37;;;;;;;8.07;2.88;;;29.20;92.10;;;;;;5052073;28;20373;-72
2022/07/12 11:02:04;;;;;;;11.38;3.72;;;29.60;92.10;;;;;;5052277;28;20044;-72
2022/07/12 11:04:29;;;;;;;9.85;3.40;;;29.20;92.00;;;;;;5051649;28;20025;-72
2022/07/12 11:06:57;;;;;;;5.13;3.47;;;28.70;91.80;;;;;;5052503;28;20085;-72
2022/07/12 11:09:24;;;;;;;8.27;3.60;;;28.70;91.70;;;;;;5055513;28;20024;-69
2022/07/12 11:11:51;;;;;;;7.90;3.83;;;28.80;91.80;;;;;;5054349;28;20397;-73
2022/07/12 11:14:25;;;;;;;7.43;3.50;;;28.70;92.10;;;;;;5055383;28;20451;-73
2022/07/12 11:16:52;;;;;;;7.10;3.20;;;29.10;91.70;;;;;;5055454;28;20512;-73
2022/07/12 11:19:25;;;;;;;8.75;3.58;;;29.20;91.70;;;;;;5055016;28;20021;-73
2022/07/12 11:21:58;;;;;;;8.32;3.53;;;29.30;90.80;;;;;;5055533;28;20033;-73
2022/07/12 11:24:36;;;;;;;3.55;2.55;;;28.90;90.90;;;;;;5054058;28;20416;-72
2022/07/12 11:27:03;;;;;;;3.40;2.50;;;28.50;91.20;;;;;;5055517;28;20108;-72
2022/07/12 11:29:29;;;;;;;7.13;2.85;;;28.50;90.30;;;;;;5055195;28;20040;-72
2022/07/12 11:32:06;;;;;;;6.40;2.97;;;28.90;90.80;;;;;;5055147;28;20029;-72
2022/07/12 11:34:34;;;;;;;7.07;2.83;;;28.70;91.00;;;;;;5055007;28;20549;-72
2022/07/12 11:37:01;;;;;;;9.13;2.95;;;28.70;90.80;;;;;;5055273;28;20409;-73
2022/07/12 11:39:38;;;;;;;7.63;3.45;;;29.00;90.70;;;;;;5053903;28;20868;-72
2022/07/12 11:42:05;;;;;;;6.80;3.67;;;28.80;90.10;;;;;;5055079;28;20033;-72
2022/07/12 11:44:47;;;;;;;7.97;3.33;;;28.70;91.10;;;;;;5054750;28;20037;-72
2022/07/12 11:47:14;;;;;;;8.35;2.95;;;28.90;90.10;;;;;;5048488;28;20547;-73
2022/07/12 11:49:52;;;;;;;6.28;3.75;;;29.40;90.00;;;;;;5055996;28;20558;-73
2022/07/12 11:52:19;;;;;;;7.00;3.38;;;30.10;90.20;;;;;;5056149;28;20032;-73
2022/07/12 11:54:47;;;;;;;5.93;3.00;;;30.30;88.70;;;;;;5055808;28;20529;-73
2022/07/12 11:57:14;;;;;;;8.48;3.00;;;30.10;88.00;;;;;;5064639;28;20036;-73
2022/07/12 11:59:40;;;;;;;4.78;2.72;;;29.50;86.60;;;;;;5063895;28;20036;-72
2022/07/12 12:02:15;;;;;;;10.18;3.40;;;29.20;87.40;;;;;;5060614;28;20030;-73
2022/07/12 12:04:48;;;;;;;6.13;3.10;;;29.20;88.50;;;;;;5054564;28;20074;-73
2022/07/12 12:07:17;;;;;;;5.22;3.22;;;29.60;89.70;;;;;;5053662;28;20400;-73
2022/07/12 12:10:04;;;;;;;11.63;3.35;;;30.10;89.10;;;;;;5060900;28;20040;-73
2022/07/12 12:12:37;;;;;;;5.55;2.90;;;30.70;87.70;;;;;;5060363;28;20544;-71
2022/07/12 12:15:08;;;;;;;6.47;3.40;;;30.80;87.60;;;;;;5055887;28;20083;-72
2022/07/12 12:17:36;;;;;;;5.88;3.85;;;30.10;85.70;;;;;;5056002;28;20069;-72
2022/07/12 12:20:13;;;;;;;5.65;2.78;;;29.80;86.60;;;;;;5058546;28;20027;-72
2022/07/12 12:22:39;;;;;;;6.90;3.30;;;30.00;85.10;;;;;;5062769;28;20025;-72
2022/07/12 12:25:06;;;;;;;6.75;2.90;;;30.30;84.10;;;;;;5056348;28;20473;-72
2022/07/12 12:27:32;;;;;;;3.42;2.90;;;30.80;82.90;;;;;;5051509;28;20025;-72
2022/07/12 12:30:08;;;;;;;5.38;3.47;;;30.60;85.50;;;;;;5057967;28;20479;-72
2022/07/12 12:33:06;;;;;;;5.55;3.65;;;30.50;86.00;;;;;;5053074;28;20112;-73
2022/07/12 12:35:38;;;;;;;7.30;3.75;;;30.40;85.40;;;;;;5057264;28;20091;-70
2022/07/12 12:38:13;;;;;;;6.88;2.88;;;31.00;86.00;;;;;;5067140;28;20499;-70
2022/07/12 12:40:40;;;;;;;6.97;3.47;;;31.20;86.00;;;;;;5059098;28;20025;-70
2022/07/12 12:43:11;;;;;;;5.05;2.97;;;31.70;85.10;;;;;;5055806;28;20094;-71
2022/07/12 12:45:48;;;;;;;3.92;3.20;;;32.00;82.60;;;;;;5054393;28;20025;-72
2022/07/12 12:48:22;;;;;;;4.57;2.47;;;32.20;83.10;;;;;;5054989;28;20025;-72
2022/07/12 12:50:50;;;;;;;10.50;3.05;;;32.10;80.30;;;;;;5046061;28;20033;-70
2022/07/12 12:53:23;;;;;;;5.22;2.65;;;31.80;80.00;;;;;;5057297;28;20036;-71
2022/07/12 12:55:51;;;;;;;10.82;3.70;;;31.80;79.30;;;;;;5049796;28;20039;-70
2022/07/12 12:58:19;;;;;;;9.32;2.90;;;31.50;80.50;;;;;;5061556;28;20021;-69
2022/07/12 13:00:48;;;;;;;5.70;2.80;;;30.90;79.90;;;;;;5054696;28;20382;-70